METAR AND TAF INFORMATION
METAR FOR SKEJ
ADDS - METARS form results

(1638 UTC 25 September 2020)
Data provider http://aviationweather.gov/metar/data/
 
METAR text: SKEJ 251600Z VRB02KT 9999 FEW017 SCT200 28/23 A2992
Conditions at: SKEJ (BARRANCABERMEJA , CO) observed 1600 UTC 25 September 2020
Temperature: 28.0°C (82°F)
Dewpoint: 23.0°C (73°F) [RH = 74%]
Pressure (altimeter): 29.92 inches Hg (1013.3 mb)
Winds: variable direction winds at 2 MPH (2 knots; 1.0 m/s)
Visibility: 6 or more miles (10+ km)
Ceiling: at least 12,000 feet AGL
Clouds: few clouds at 1700 feet AGL
scattered clouds at 20000 feet AGL
Weather: no significant weather observed at this time

 AIRPORT MAP

 RUNWAY INFORMATION
Runway 04 Runway length 5905 ft Runway width 148 ft
Runway elevation 401 ft Runway displaced threshold 0 ft Runway heading 31
Runway 22 Runway length 5905 ft Runway width 148 ft
Runway elevation 408 ft Runway displaced threshold 0 ft Runway heading 211

 AIRPORT FREQUENCIES
Type APP Name BUCARAMANG Frequency 119 MHZ
Type RDO Name BARRANCABE Frequency 348.8 MHZ
Type TWR Name TWR Frequency 118.45 MHZ

 AIRPORT NEAR NAVIGATION AIDS
Type VOR-DME Name Barrancabermeja Frequency 115900 KHZ